sensor_id;sensor_type;location;lat;lon;timestamp;P1;durP1;ratioP1;P2;durP2;ratioP2
56631;SDS011;42503;39.928;-75.152;2022-08-27T00:00:32;4.72;;;4.32;;
56631;SDS011;42503;39.928;-75.152;2022-08-27T00:02:33;5.63;;;5.13;;
56631;SDS011;42503;39.928;-75.152;2022-08-27T00:04:35;5.63;;;4.90;;
56631;SDS011;42503;39.928;-75.152;2022-08-27T00:06:39;5.70;;;5.20;;
56631;SDS011;42503;39.928;-75.152;2022-08-27T00:08:41;5.70;;;5.20;;
56631;SDS011;42503;39.928;-75.152;2022-08-27T00:10:42;6.45;;;5.13;;
56631;SDS011;42503;39.928;-75.152;2022-08-27T00:12:43;5.72;;;5.13;;
56631;SDS011;42503;39.928;-75.152;2022-08-27T00:14:44;6.25;;;5.25;;
56631;SDS011;42503;39.928;-75.152;2022-08-27T00:16:45;7.30;;;5.07;;
56631;SDS011;42503;39.928;-75.152;2022-08-27T00:18:46;4.93;;;4.43;;
56631;SDS011;42503;39.928;-75.152;2022-08-27T00:20:47;5.80;;;4.60;;
56631;SDS011;42503;39.928;-75.152;2022-08-27T00:22:48;5.28;;;4.78;;
56631;SDS011;42503;39.928;-75.152;2022-08-27T00:24:49;8.73;;;5.38;;
56631;SDS011;42503;39.928;-75.152;2022-08-27T00:26:50;8.55;;;5.25;;
56631;SDS011;42503;39.928;-75.152;2022-08-27T00:28:52;5.95;;;4.78;;
56631;SDS011;42503;39.928;-75.152;2022-08-27T00:30:54;5.50;;;4.95;;
56631;SDS011;42503;39.928;-75.152;2022-08-27T00:32:55;5.90;;;5.20;;
56631;SDS011;42503;39.928;-75.152;2022-08-27T00:34:56;5.50;;;5.00;;
56631;SDS011;42503;39.928;-75.152;2022-08-27T00:36:57;7.47;;;4.95;;
56631;SDS011;42503;39.928;-75.152;2022-08-27T00:38:58;7.75;;;5.47;;
56631;SDS011;42503;39.928;-75.152;2022-08-27T00:40:59;6.63;;;5.40;;
56631;SDS011;42503;39.928;-75.152;2022-08-27T00:43:00;10.60;;;5.53;;
56631;SDS011;42503;39.928;-75.152;2022-08-27T00:45:07;8.98;;;5.63;;
56631;SDS011;42503;39.928;-75.152;2022-08-27T00:47:13;10.27;;;6.32;;
56631;SDS011;42503;39.928;-75.152;2022-08-27T00:49:26;9.07;;;6.10;;
56631;SDS011;42503;39.928;-75.152;2022-08-27T00:51:29;10.80;;;6.18;;
56631;SDS011;42503;39.928;-75.152;2022-08-27T00:53:31;10.38;;;6.25;;
56631;SDS011;42503;39.928;-75.152;2022-08-27T00:55:34;12.43;;;6.28;;
56631;SDS011;42503;39.928;-75.152;2022-08-27T00:57:37;10.23;;;5.93;;
56631;SDS011;42503;39.928;-75.152;2022-08-27T00:59:38;9.38;;;6.30;;
56631;SDS011;42503;39.928;-75.152;2022-08-27T01:01:40;10.23;;;6.22;;
56631;SDS011;42503;39.928;-75.152;2022-08-27T01:04:01;7.78;;;6.35;;
56631;SDS011;42503;39.928;-75.152;2022-08-27T01:06:04;9.80;;;7.05;;
56631;SDS011;42503;39.928;-75.152;2022-08-27T01:08:09;8.35;;;6.10;;
56631;SDS011;42503;39.928;-75.152;2022-08-27T01:10:12;9.30;;;5.82;;
56631;SDS011;42503;39.928;-75.152;2022-08-27T01:12:14;10.02;;;5.82;;
56631;SDS011;42503;39.928;-75.152;2022-08-27T01:14:15;14.13;;;6.93;;
56631;SDS011;42503;39.928;-75.152;2022-08-27T01:16:18;11.63;;;5.93;;
56631;SDS011;42503;39.928;-75.152;2022-08-27T01:18:21;11.32;;;6.10;;
56631;SDS011;42503;39.928;-75.152;2022-08-27T01:20:27;14.27;;;5.60;;
56631;SDS011;42503;39.928;-75.152;2022-08-27T01:23:05;12.48;;;6.45;;
56631;SDS011;42503;39.928;-75.152;2022-08-27T01:24:59;13.43;;;6.38;;
56631;SDS011;42503;39.928;-75.152;2022-08-27T01:27:01;11.77;;;6.30;;
56631;SDS011;42503;39.928;-75.152;2022-08-27T01:29:02;14.88;;;6.20;;
56631;SDS011;42503;39.928;-75.152;2022-08-27T01:31:04;12.32;;;6.15;;
56631;SDS011;42503;39.928;-75.152;2022-08-27T01:33:09;17.15;;;6.28;;
56631;SDS011;42503;39.928;-75.152;2022-08-27T01:35:11;14.77;;;6.25;;
56631;SDS011;42503;39.928;-75.152;2022-08-27T01:37:13;11.43;;;6.65;;
56631;SDS011;42503;39.928;-75.152;2022-08-27T01:39:14;12.38;;;6.25;;
56631;SDS011;42503;39.928;-75.152;2022-08-27T01:41:15;9.73;;;6.00;;
56631;SDS011;42503;39.928;-75.152;2022-08-27T01:43:16;10.77;;;6.43;;
56631;SDS011;42503;39.928;-75.152;2022-08-27T01:45:22;12.95;;;6.10;;
56631;SDS011;42503;39.928;-75.152;2022-08-27T01:47:25;10.25;;;5.63;;
56631;SDS011;42503;39.928;-75.152;2022-08-27T01:49:26;13.40;;;5.57;;
56631;SDS011;42503;39.928;-75.152;2022-08-27T01:51:26;13.80;;;6.25;;
56631;SDS011;42503;39.928;-75.152;2022-08-27T01:53:27;11.18;;;6.53;;
56631;SDS011;42503;39.928;-75.152;2022-08-27T01:55:28;13.23;;;5.53;;
56631;SDS011;42503;39.928;-75.152;2022-08-27T01:57:29;10.43;;;6.75;;
56631;SDS011;42503;39.928;-75.152;2022-08-27T01:59:32;11.57;;;6.13;;
56631;SDS011;42503;39.928;-75.152;2022-08-27T02:01:33;11.15;;;6.45;;
56631;SDS011;42503;39.928;-75.152;2022-08-27T02:03:35;18.27;;;6.20;;
56631;SDS011;42503;39.928;-75.152;2022-08-27T02:05:36;16.60;;;6.10;;
56631;SDS011;42503;39.928;-75.152;2022-08-27T02:07:39;17.00;;;6.32;;
56631;SDS011;42503;39.928;-75.152;2022-08-27T02:09:45;13.05;;;5.78;;
56631;SDS011;42503;39.928;-75.152;2022-08-27T02:11:46;17.73;;;6.50;;
56631;SDS011;42503;39.928;-75.152;2022-08-27T02:13:47;16.15;;;6.25;;
56631;SDS011;42503;39.928;-75.152;2022-08-27T02:15:47;12.15;;;6.75;;
56631;SDS011;42503;39.928;-75.152;2022-08-27T02:17:49;14.50;;;6.47;;
56631;SDS011;42503;39.928;-75.152;2022-08-27T02:19:52;12.25;;;5.93;;
56631;SDS011;42503;39.928;-75.152;2022-08-27T02:21:56;15.90;;;6.65;;
56631;SDS011;42503;39.928;-75.152;2022-08-27T02:23:59;14.48;;;6.40;;
56631;SDS011;42503;39.928;-75.152;2022-08-27T02:26:00;18.10;;;6.10;;
56631;SDS011;42503;39.928;-75.152;2022-08-27T02:28:01;12.25;;;6.07;;
56631;SDS011;42503;39.928;-75.152;2022-08-27T02:30:03;15.35;;;5.95;;
56631;SDS011;42503;39.928;-75.152;2022-08-27T02:32:07;11.95;;;6.25;;
56631;SDS011;42503;39.928;-75.152;2022-08-27T02:34:08;14.13;;;6.57;;
56631;SDS011;42503;39.928;-75.152;2022-08-27T02:36:10;12.25;;;5.57;;
56631;SDS011;42503;39.928;-75.152;2022-08-27T02:38:13;12.25;;;6.25;;
56631;SDS011;42503;39.928;-75.152;2022-08-27T02:40:15;14.75;;;5.63;;
56631;SDS011;42503;39.928;-75.152;2022-08-27T02:42:16;13.70;;;6.00;;
56631;SDS011;42503;39.928;-75.152;2022-08-27T02:44:17;9.90;;;6.10;;
56631;SDS011;42503;39.928;-75.152;2022-08-27T02:46:18;9.85;;;5.90;;
56631;SDS011;42503;39.928;-75.152;2022-08-27T02:48:19;7.82;;;5.45;;
56631;SDS011;42503;39.928;-75.152;2022-08-27T02:50:20;13.32;;;5.93;;
56631;SDS011;42503;39.928;-75.152;2022-08-27T02:52:21;9.77;;;5.93;;
56631;SDS011;42503;39.928;-75.152;2022-08-27T02:54:23;7.30;;;5.65;;
56631;SDS011;42503;39.928;-75.152;2022-08-27T02:56:23;10.43;;;5.40;;
56631;SDS011;42503;39.928;-75.152;2022-08-27T02:58:24;9.90;;;6.05;;
56631;SDS011;42503;39.928;-75.152;2022-08-27T03:00:25;6.70;;;5.63;;
56631;SDS011;42503;39.928;-75.152;2022-08-27T03:02:28;9.70;;;5.78;;
56631;SDS011;42503;39.928;-75.152;2022-08-27T03:04:28;14.73;;;6.38;;
56631;SDS011;42503;39.928;-75.152;2022-08-27T03:06:32;8.85;;;5.45;;
56631;SDS011;42503;39.928;-75.152;2022-08-27T03:08:33;8.98;;;5.53;;
56631;SDS011;42503;39.928;-75.152;2022-08-27T03:10:34;8.85;;;5.50;;
56631;SDS011;42503;39.928;-75.152;2022-08-27T03:12:35;10.35;;;5.53;;
56631;SDS011;42503;39.928;-75.152;2022-08-27T03:14:35;8.00;;;5.88;;
56631;SDS011;42503;39.928;-75.152;2022-08-27T03:16:36;8.02;;;5.78;;
56631;SDS011;42503;39.928;-75.152;2022-08-27T03:18:37;11.02;;;6.15;;
56631;SDS011;42503;39.928;-75.152;2022-08-27T03:20:39;7.65;;;5.75;;
56631;SDS011;42503;39.928;-75.152;2022-08-27T03:22:41;8.57;;;4.95;;
56631;SDS011;42503;39.928;-75.152;2022-08-27T03:24:41;9.30;;;5.45;;
56631;SDS011;42503;39.928;-75.152;2022-08-27T03:26:42;7.40;;;5.68;;
56631;SDS011;42503;39.928;-75.152;2022-08-27T03:28:44;6.82;;;4.95;;
56631;SDS011;42503;39.928;-75.152;2022-08-27T03:30:47;7.55;;;5.85;;
56631;SDS011;42503;39.928;-75.152;2022-08-27T03:32:50;8.27;;;5.30;;
56631;SDS011;42503;39.928;-75.152;2022-08-27T03:34:51;5.93;;;5.07;;
56631;SDS011;42503;39.928;-75.152;2022-08-27T03:36:52;7.85;;;4.90;;
56631;SDS011;42503;39.928;-75.152;2022-08-27T03:38:53;20.05;;;6.20;;
56631;SDS011;42503;39.928;-75.152;2022-08-27T03:40:54;11.40;;;5.68;;
56631;SDS011;42503;39.928;-75.152;2022-08-27T03:42:55;10.60;;;5.45;;
56631;SDS011;42503;39.928;-75.152;2022-08-27T03:44:56;12.00;;;5.47;;
56631;SDS011;42503;39.928;-75.152;2022-08-27T03:46:56;12.85;;;5.50;;
56631;SDS011;42503;39.928;-75.152;2022-08-27T03:48:57;7.15;;;5.40;;
56631;SDS011;42503;39.928;-75.152;2022-08-27T03:50:58;8.02;;;5.30;;
56631;SDS011;42503;39.928;-75.152;2022-08-27T03:52:59;8.65;;;5.82;;
56631;SDS011;42503;39.928;-75.152;2022-08-27T03:55:01;10.10;;;5.50;;
56631;SDS011;42503;39.928;-75.152;2022-08-27T03:57:03;16.92;;;5.97;;
56631;SDS011;42503;39.928;-75.152;2022-08-27T03:59:04;8.65;;;5.55;;
56631;SDS011;42503;39.928;-75.152;2022-08-27T04:01:05;7.68;;;4.85;;
56631;SDS011;42503;39.928;-75.152;2022-08-27T04:03:06;11.27;;;6.10;;
56631;SDS011;42503;39.928;-75.152;2022-08-27T04:05:10;10.02;;;5.30;;
56631;SDS011;42503;39.928;-75.152;2022-08-27T04:07:12;8.20;;;5.45;;
56631;SDS011;42503;39.928;-75.152;2022-08-27T04:09:13;9.93;;;5.68;;
56631;SDS011;42503;39.928;-75.152;2022-08-27T04:11:14;8.32;;;5.40;;
56631;SDS011;42503;39.928;-75.152;2022-08-27T04:13:15;9.85;;;5.43;;
56631;SDS011;42503;39.928;-75.152;2022-08-27T04:15:16;8.07;;;5.72;;
56631;SDS011;42503;39.928;-75.152;2022-08-27T04:17:17;6.78;;;5.35;;
56631;SDS011;42503;39.928;-75.152;2022-08-27T04:19:21;7.10;;;5.80;;
56631;SDS011;42503;39.928;-75.152;2022-08-27T04:21:22;7.88;;;5.40;;
56631;SDS011;42503;39.928;-75.152;2022-08-27T04:23:23;9.85;;;5.03;;
56631;SDS011;42503;39.928;-75.152;2022-08-27T04:25:26;7.03;;;5.00;;
56631;SDS011;42503;39.928;-75.152;2022-08-27T04:27:27;9.03;;;5.40;;
56631;SDS011;42503;39.928;-75.152;2022-08-27T04:29:28;8.18;;;4.97;;
56631;SDS011;42503;39.928;-75.152;2022-08-27T04:31:29;6.50;;;5.10;;
56631;SDS011;42503;39.928;-75.152;2022-08-27T04:33:33;6.03;;;4.95;;
56631;SDS011;42503;39.928;-75.152;2022-08-27T04:35:34;5.97;;;4.82;;
56631;SDS011;42503;39.928;-75.152;2022-08-27T04:37:35;7.95;;;5.47;;
56631;SDS011;42503;39.928;-75.152;2022-08-27T04:39:35;8.93;;;5.15;;
56631;SDS011;42503;39.928;-75.152;2022-08-27T04:41:37;6.80;;;5.07;;
56631;SDS011;42503;39.928;-75.152;2022-08-27T04:43:38;5.57;;;5.03;;
56631;SDS011;42503;39.928;-75.152;2022-08-27T04:45:42;8.75;;;5.15;;
56631;SDS011;42503;39.928;-75.152;2022-08-27T04:47:43;5.47;;;4.82;;
56631;SDS011;42503;39.928;-75.152;2022-08-27T04:49:45;6.43;;;4.78;;
56631;SDS011;42503;39.928;-75.152;2022-08-27T04:51:46;5.85;;;5.00;;
56631;SDS011;42503;39.928;-75.152;2022-08-27T04:53:47;6.78;;;5.03;;
56631;SDS011;42503;39.928;-75.152;2022-08-27T04:55:52;5.38;;;4.80;;
56631;SDS011;42503;39.928;-75.152;2022-08-27T04:57:53;5.45;;;4.93;;
56631;SDS011;42503;39.928;-75.152;2022-08-27T04:59:54;6.85;;;5.60;;
56631;SDS011;42503;39.928;-75.152;2022-08-27T05:02:00;7.60;;;5.30;;
56631;SDS011;42503;39.928;-75.152;2022-08-27T05:04:02;6.22;;;5.63;;
56631;SDS011;42503;39.928;-75.152;2022-08-27T05:06:03;5.70;;;5.07;;
56631;SDS011;42503;39.928;-75.152;2022-08-27T05:08:04;6.53;;;5.20;;
56631;SDS011;42503;39.928;-75.152;2022-08-27T05:10:06;5.47;;;4.97;;
56631;SDS011;42503;39.928;-75.152;2022-08-27T05:12:07;5.53;;;5.03;;
56631;SDS011;42503;39.928;-75.152;2022-08-27T05:14:11;5.75;;;5.00;;
56631;SDS011;42503;39.928;-75.152;2022-08-27T05:16:14;6.68;;;5.10;;
56631;SDS011;42503;39.928;-75.152;2022-08-27T05:18:15;6.95;;;4.95;;
56631;SDS011;42503;39.928;-75.152;2022-08-27T05:20:16;5.40;;;4.88;;
56631;SDS011;42503;39.928;-75.152;2022-08-27T05:22:18;6.50;;;4.90;;
56631;SDS011;42503;39.928;-75.152;2022-08-27T05:24:22;7.57;;;5.40;;
56631;SDS011;42503;39.928;-75.152;2022-08-27T05:26:23;6.00;;;5.25;;
56631;SDS011;42503;39.928;-75.152;2022-08-27T05:28:25;5.43;;;4.93;;
56631;SDS011;42503;39.928;-75.152;2022-08-27T05:30:26;5.65;;;4.88;;
56631;SDS011;42503;39.928;-75.152;2022-08-27T05:32:29;7.78;;;5.70;;
56631;SDS011;42503;39.928;-75.152;2022-08-27T05:34:30;7.97;;;5.57;;
56631;SDS011;42503;39.928;-75.152;2022-08-27T05:36:32;5.75;;;5.15;;
56631;SDS011;42503;39.928;-75.152;2022-08-27T05:38:34;6.15;;;5.07;;
56631;SDS011;42503;39.928;-75.152;2022-08-27T05:40:36;5.55;;;4.72;;
56631;SDS011;42503;39.928;-75.152;2022-08-27T05:42:37;5.50;;;4.70;;
56631;SDS011;42503;39.928;-75.152;2022-08-27T05:44:42;5.63;;;5.13;;
56631;SDS011;42503;39.928;-75.152;2022-08-27T05:46:43;6.32;;;5.00;;
56631;SDS011;42503;39.928;-75.152;2022-08-27T05:48:44;5.30;;;4.80;;
56631;SDS011;42503;39.928;-75.152;2022-08-27T05:50:45;6.90;;;5.00;;
56631;SDS011;42503;39.928;-75.152;2022-08-27T05:52:46;5.53;;;5.03;;
56631;SDS011;42503;39.928;-75.152;2022-08-27T05:54:47;5.22;;;4.75;;
56631;SDS011;42503;39.928;-75.152;2022-08-27T05:56:48;5.50;;;5.00;;
56631;SDS011;42503;39.928;-75.152;2022-08-27T05:58:49;5.30;;;4.85;;
56631;SDS011;42503;39.928;-75.152;2022-08-27T06:01:08;4.90;;;4.50;;
56631;SDS011;42503;39.928;-75.152;2022-08-27T06:05:13;5.55;;;5.05;;
56631;SDS011;42503;39.928;-75.152;2022-08-27T06:07:14;5.95;;;5.35;;
56631;SDS011;42503;39.928;-75.152;2022-08-27T06:09:17;6.05;;;5.45;;
56631;SDS011;42503;39.928;-75.152;2022-08-27T06:11:18;5.60;;;4.88;;
56631;SDS011;42503;39.928;-75.152;2022-08-27T06:13:19;5.63;;;5.13;;
56631;SDS011;42503;39.928;-75.152;2022-08-27T06:15:20;7.40;;;5.25;;
56631;SDS011;42503;39.928;-75.152;2022-08-27T06:17:21;6.90;;;5.10;;
56631;SDS011;42503;39.928;-75.152;2022-08-27T06:19:22;5.60;;;5.10;;
56631;SDS011;42503;39.928;-75.152;2022-08-27T06:21:23;5.90;;;4.45;;
56631;SDS011;42503;39.928;-75.152;2022-08-27T06:23:24;5.38;;;4.88;;
56631;SDS011;42503;39.928;-75.152;2022-08-27T06:25:25;5.30;;;4.75;;
56631;SDS011;42503;39.928;-75.152;2022-08-27T06:27:26;5.15;;;4.68;;
56631;SDS011;42503;39.928;-75.152;2022-08-27T06:29:29;5.18;;;4.68;;
56631;SDS011;42503;39.928;-75.152;2022-08-27T06:31:30;5.40;;;5.00;;
56631;SDS011;42503;39.928;-75.152;2022-08-27T06:33:31;5.13;;;4.57;;
56631;SDS011;42503;39.928;-75.152;2022-08-27T06:35:35;5.05;;;4.55;;
56631;SDS011;42503;39.928;-75.152;2022-08-27T06:37:36;5.55;;;4.63;;
56631;SDS011;42503;39.928;-75.152;2022-08-27T06:39:37;4.90;;;4.40;;
56631;SDS011;42503;39.928;-75.152;2022-08-27T06:41:39;7.97;;;4.65;;
56631;SDS011;42503;39.928;-75.152;2022-08-27T06:43:41;5.50;;;4.88;;
56631;SDS011;42503;39.928;-75.152;2022-08-27T06:45:42;6.05;;;5.22;;
56631;SDS011;42503;39.928;-75.152;2022-08-27T06:47:43;5.32;;;4.82;;
56631;SDS011;42503;39.928;-75.152;2022-08-27T06:49:44;5.68;;;5.07;;
56631;SDS011;42503;39.928;-75.152;2022-08-27T06:51:45;6.40;;;5.25;;
56631;SDS011;42503;39.928;-75.152;2022-08-27T06:53:47;5.22;;;4.72;;
56631;SDS011;42503;39.928;-75.152;2022-08-27T06:55:51;5.30;;;4.80;;
56631;SDS011;42503;39.928;-75.152;2022-08-27T06:57:51;5.40;;;4.85;;
56631;SDS011;42503;39.928;-75.152;2022-08-27T06:59:52;5.45;;;4.95;;
56631;SDS011;42503;39.928;-75.152;2022-08-27T07:01:53;5.28;;;4.30;;
56631;SDS011;42503;39.928;-75.152;2022-08-27T07:03:54;4.93;;;4.43;;
56631;SDS011;42503;39.928;-75.152;2022-08-27T07:06:02;4.80;;;4.40;;
56631;SDS011;42503;39.928;-75.152;2022-08-27T07:08:04;5.47;;;4.82;;
56631;SDS011;42503;39.928;-75.152;2022-08-27T07:10:05;5.15;;;4.68;;
56631;SDS011;42503;39.928;-75.152;2022-08-27T07:12:06;7.38;;;5.25;;
56631;SDS011;42503;39.928;-75.152;2022-08-27T07:14:08;5.43;;;4.75;;
56631;SDS011;42503;39.928;-75.152;2022-08-27T07:16:12;5.65;;;5.07;;
56631;SDS011;42503;39.928;-75.152;2022-08-27T07:18:13;4.38;;;3.97;;
56631;SDS011;42503;39.928;-75.152;2022-08-27T07:20:17;5.30;;;4.80;;
56631;SDS011;42503;39.928;-75.152;2022-08-27T07:22:18;5.28;;;4.78;;
56631;SDS011;42503;39.928;-75.152;2022-08-27T07:24:19;4.97;;;4.30;;
56631;SDS011;42503;39.928;-75.152;2022-08-27T07:26:21;5.40;;;4.90;;
56631;SDS011;42503;39.928;-75.152;2022-08-27T07:28:22;5.22;;;4.45;;
56631;SDS011;42503;39.928;-75.152;2022-08-27T07:30:23;5.55;;;5.05;;
56631;SDS011;42503;39.928;-75.152;2022-08-27T07:32:24;5.78;;;4.32;;
56631;SDS011;42503;39.928;-75.152;2022-08-27T07:34:25;6.63;;;4.72;;
56631;SDS011;42503;39.928;-75.152;2022-08-27T07:36:26;4.70;;;4.15;;
56631;SDS011;42503;39.928;-75.152;2022-08-27T07:38:27;5.47;;;4.97;;
56631;SDS011;42503;39.928;-75.152;2022-08-27T07:40:27;4.82;;;4.32;;
56631;SDS011;42503;39.928;-75.152;2022-08-27T07:42:28;4.85;;;4.45;;
56631;SDS011;42503;39.928;-75.152;2022-08-27T07:44:47;5.80;;;4.95;;
56631;SDS011;42503;39.928;-75.152;2022-08-27T07:46:49;4.88;;;4.47;;
56631;SDS011;42503;39.928;-75.152;2022-08-27T07:48:50;4.80;;;4.30;;
56631;SDS011;42503;39.928;-75.152;2022-08-27T07:50:51;5.10;;;4.60;;
56631;SDS011;42503;39.928;-75.152;2022-08-27T07:52:52;5.35;;;4.60;;
56631;SDS011;42503;39.928;-75.152;2022-08-27T07:54:53;4.60;;;4.20;;
56631;SDS011;42503;39.928;-75.152;2022-08-27T07:56:54;4.82;;;4.32;;
56631;SDS011;42503;39.928;-75.152;2022-08-27T07:58:55;5.00;;;4.50;;
56631;SDS011;42503;39.928;-75.152;2022-08-27T08:00:56;4.97;;;4.55;;
56631;SDS011;42503;39.928;-75.152;2022-08-27T08:02:57;5.47;;;4.93;;
56631;SDS011;42503;39.928;-75.152;2022-08-27T08:05:01;6.00;;;4.75;;
56631;SDS011;42503;39.928;-75.152;2022-08-27T08:07:02;4.53;;;4.13;;
56631;SDS011;42503;39.928;-75.152;2022-08-27T08:09:03;5.13;;;4.60;;
56631;SDS011;42503;39.928;-75.152;2022-08-27T08:11:04;6.57;;;4.90;;
56631;SDS011;42503;39.928;-75.152;2022-08-27T08:13:05;5.05;;;4.55;;
56631;SDS011;42503;39.928;-75.152;2022-08-27T08:15:07;5.30;;;4.68;;
56631;SDS011;42503;39.928;-75.152;2022-08-27T08:17:09;5.20;;;4.70;;
56631;SDS011;42503;39.928;-75.152;2022-08-27T08:19:10;5.10;;;4.70;;
56631;SDS011;42503;39.928;-75.152;2022-08-27T08:21:11;5.85;;;4.75;;
56631;SDS011;42503;39.928;-75.152;2022-08-27T08:23:12;6.03;;;4.78;;
56631;SDS011;42503;39.928;-75.152;2022-08-27T08:25:16;5.20;;;4.70;;
56631;SDS011;42503;39.928;-75.152;2022-08-27T08:27:18;5.22;;;4.72;;
56631;SDS011;42503;39.928;-75.152;2022-08-27T08:29:20;5.25;;;4.75;;
56631;SDS011;42503;39.928;-75.152;2022-08-27T08:31:21;5.53;;;5.03;;
56631;SDS011;42503;39.928;-75.152;2022-08-27T08:33:26;5.25;;;4.80;;
56631;SDS011;42503;39.928;-75.152;2022-08-27T08:35:28;5.22;;;4.72;;
56631;SDS011;42503;39.928;-75.152;2022-08-27T08:37:29;5.75;;;4.80;;
56631;SDS011;42503;39.928;-75.152;2022-08-27T08:39:29;5.30;;;4.80;;
56631;SDS011;42503;39.928;-75.152;2022-08-27T08:41:37;5.00;;;4.60;;
56631;SDS011;42503;39.928;-75.152;2022-08-27T08:43:40;4.80;;;4.40;;
56631;SDS011;42503;39.928;-75.152;2022-08-27T08:45:43;5.05;;;4.55;;
56631;SDS011;42503;39.928;-75.152;2022-08-27T08:47:49;5.07;;;4.65;;
56631;SDS011;42503;39.928;-75.152;2022-08-27T08:54:12;4.88;;;4.47;;
56631;SDS011;42503;39.928;-75.152;2022-08-27T08:56:39;5.25;;;4.78;;
56631;SDS011;42503;39.928;-75.152;2022-08-27T09:00:47;4.70;;;4.20;;
56631;SDS011;42503;39.928;-75.152;2022-08-27T09:02:51;5.05;;;4.65;;
56631;SDS011;42503;39.928;-75.152;2022-08-27T09:04:54;4.97;;;4.57;;
56631;SDS011;42503;39.928;-75.152;2022-08-27T09:09:21;6.38;;;5.00;;
56631;SDS011;42503;39.928;-75.152;2022-08-27T09:13:24;4.80;;;4.40;;
56631;SDS011;42503;39.928;-75.152;2022-08-27T09:15:28;5.22;;;4.72;;
56631;SDS011;42503;39.928;-75.152;2022-08-27T09:17:29;5.85;;;5.25;;
56631;SDS011;42503;39.928;-75.152;2022-08-27T09:19:30;5.47;;;4.75;;
56631;SDS011;42503;39.928;-75.152;2022-08-27T09:25:52;5.20;;;4.70;;
56631;SDS011;42503;39.928;-75.152;2022-08-27T09:27:58;5.32;;;4.90;;
56631;SDS011;42503;39.928;-75.152;2022-08-27T09:30:06;5.47;;;4.97;;
56631;SDS011;42503;39.928;-75.152;2022-08-27T09:32:07;4.93;;;4.47;;
56631;SDS011;42503;39.928;-75.152;2022-08-27T09:34:08;5.30;;;4.80;;
56631;SDS011;42503;39.928;-75.152;2022-08-27T09:36:12;4.93;;;4.43;;
56631;SDS011;42503;39.928;-75.152;2022-08-27T09:38:25;5.38;;;4.68;;
56631;SDS011;42503;39.928;-75.152;2022-08-27T09:40:28;5.60;;;5.10;;
56631;SDS011;42503;39.928;-75.152;2022-08-27T09:42:33;5.10;;;4.60;;
56631;SDS011;42503;39.928;-75.152;2022-08-27T09:44:52;4.90;;;4.50;;
56631;SDS011;42503;39.928;-75.152;2022-08-27T09:46:57;6.65;;;5.15;;
56631;SDS011;42503;39.928;-75.152;2022-08-27T09:49:08;4.82;;;4.43;;
56631;SDS011;42503;39.928;-75.152;2022-08-27T09:51:11;5.65;;;5.15;;
56631;SDS011;42503;39.928;-75.152;2022-08-27T09:53:27;5.38;;;4.88;;
56631;SDS011;42503;39.928;-75.152;2022-08-27T09:57:35;5.20;;;4.72;;
56631;SDS011;42503;39.928;-75.152;2022-08-27T09:59:48;5.43;;;4.78;;
56631;SDS011;42503;39.928;-75.152;2022-08-27T10:01:55;5.82;;;4.70;;
56631;SDS011;42503;39.928;-75.152;2022-08-27T10:04:10;4.35;;;3.95;;
56631;SDS011;42503;39.928;-75.152;2022-08-27T10:06:24;6.20;;;4.70;;
56631;SDS011;42503;39.928;-75.152;2022-08-27T10:08:40;4.93;;;4.43;;
56631;SDS011;42503;39.928;-75.152;2022-08-27T10:10:50;5.20;;;4.70;;
56631;SDS011;42503;39.928;-75.152;2022-08-27T10:13:02;4.68;;;4.28;;
56631;SDS011;42503;39.928;-75.152;2022-08-27T10:15:07;5.38;;;4.88;;
56631;SDS011;42503;39.928;-75.152;2022-08-27T10:17:15;5.20;;;4.70;;
56631;SDS011;42503;39.928;-75.152;2022-08-27T10:21:46;5.45;;;4.38;;
56631;SDS011;42503;39.928;-75.152;2022-08-27T10:24:01;4.78;;;4.38;;
56631;SDS011;42503;39.928;-75.152;2022-08-27T10:26:17;4.65;;;4.25;;
56631;SDS011;42503;39.928;-75.152;2022-08-27T10:30:43;5.13;;;4.63;;
56631;SDS011;42503;39.928;-75.152;2022-08-27T10:35:07;4.90;;;4.40;;
56631;SDS011;42503;39.928;-75.152;2022-08-27T10:43:28;4.72;;;4.32;;
56631;SDS011;42503;39.928;-75.152;2022-08-27T10:45:42;4.55;;;4.15;;
56631;SDS011;42503;39.928;-75.152;2022-08-27T10:48:05;4.20;;;3.85;;
56631;SDS011;42503;39.928;-75.152;2022-08-27T10:50:14;4.78;;;4.32;;
56631;SDS011;42503;39.928;-75.152;2022-08-27T10:54:42;4.78;;;4.38;;
56631;SDS011;42503;39.928;-75.152;2022-08-27T10:56:48;4.40;;;4.00;;
56631;SDS011;42503;39.928;-75.152;2022-08-27T11:01:02;5.03;;;4.53;;
56631;SDS011;42503;39.928;-75.152;2022-08-27T11:05:44;6.13;;;4.53;;
56631;SDS011;42503;39.928;-75.152;2022-08-27T11:07:54;5.07;;;4.57;;
56631;SDS011;42503;39.928;-75.152;2022-08-27T11:10:00;4.90;;;4.40;;
56631;SDS011;42503;39.928;-75.152;2022-08-27T11:12:02;4.80;;;4.30;;
56631;SDS011;42503;39.928;-75.152;2022-08-27T11:14:06;4.47;;;4.10;;
56631;SDS011;42503;39.928;-75.152;2022-08-27T11:16:19;4.57;;;4.18;;
56631;SDS011;42503;39.928;-75.152;2022-08-27T11:18:26;4.90;;;4.50;;
56631;SDS011;42503;39.928;-75.152;2022-08-27T11:20:44;4.55;;;4.15;;
56631;SDS011;42503;39.928;-75.152;2022-08-27T11:22:51;5.32;;;4.82;;
56631;SDS011;42503;39.928;-75.152;2022-08-27T11:24:59;4.60;;;4.18;;
56631;SDS011;42503;39.928;-75.152;2022-08-27T11:27:03;4.88;;;4.47;;
56631;SDS011;42503;39.928;-75.152;2022-08-27T11:29:17;4.47;;;4.07;;
56631;SDS011;42503;39.928;-75.152;2022-08-27T11:31:29;4.60;;;4.20;;
56631;SDS011;42503;39.928;-75.152;2022-08-27T11:33:36;4.50;;;4.10;;
56631;SDS011;42503;39.928;-75.152;2022-08-27T11:42:36;5.03;;;4.22;;
56631;SDS011;42503;39.928;-75.152;2022-08-27T11:44:44;4.43;;;4.03;;
56631;SDS011;42503;39.928;-75.152;2022-08-27T11:46:53;5.40;;;4.35;;
56631;SDS011;42503;39.928;-75.152;2022-08-27T11:48:58;4.32;;;4.00;;
56631;SDS011;42503;39.928;-75.152;2022-08-27T11:53:03;4.40;;;4.00;;
56631;SDS011;42503;39.928;-75.152;2022-08-27T11:55:09;5.45;;;4.10;;
56631;SDS011;42503;39.928;-75.152;2022-08-27T11:57:30;4.75;;;4.35;;
56631;SDS011;42503;39.928;-75.152;2022-08-27T11:59:32;4.63;;;4.22;;
56631;SDS011;42503;39.928;-75.152;2022-08-27T12:01:33;4.40;;;4.00;;
56631;SDS011;42503;39.928;-75.152;2022-08-27T12:03:34;6.15;;;4.40;;
56631;SDS011;42503;39.928;-75.152;2022-08-27T12:05:41;4.63;;;4.22;;
56631;SDS011;42503;39.928;-75.152;2022-08-27T12:07:42;4.65;;;4.25;;
56631;SDS011;42503;39.928;-75.152;2022-08-27T12:16:19;4.70;;;4.18;;
56631;SDS011;42503;39.928;-75.152;2022-08-27T12:18:42;6.88;;;4.20;;
56631;SDS011;42503;39.928;-75.152;2022-08-27T12:20:50;10.43;;;4.20;;
56631;SDS011;42503;39.928;-75.152;2022-08-27T12:23:05;7.28;;;4.15;;
56631;SDS011;42503;39.928;-75.152;2022-08-27T12:25:27;7.55;;;4.20;;
56631;SDS011;42503;39.928;-75.152;2022-08-27T12:27:29;8.57;;;4.47;;
56631;SDS011;42503;39.928;-75.152;2022-08-27T12:31:32;6.47;;;4.00;;
56631;SDS011;42503;39.928;-75.152;2022-08-27T12:33:40;11.75;;;5.45;;
56631;SDS011;42503;39.928;-75.152;2022-08-27T12:35:43;6.00;;;4.15;;
56631;SDS011;42503;39.928;-75.152;2022-08-27T12:37:50;7.47;;;5.10;;
56631;SDS011;42503;39.928;-75.152;2022-08-27T12:39:59;5.93;;;3.97;;
56631;SDS011;42503;39.928;-75.152;2022-08-27T12:42:01;6.47;;;4.40;;
56631;SDS011;42503;39.928;-75.152;2022-08-27T12:44:21;6.15;;;4.78;;
56631;SDS011;42503;39.928;-75.152;2022-08-27T12:46:22;5.97;;;4.30;;
56631;SDS011;42503;39.928;-75.152;2022-08-27T12:48:30;4.90;;;3.97;;
56631;SDS011;42503;39.928;-75.152;2022-08-27T12:50:34;4.78;;;4.38;;
56631;SDS011;42503;39.928;-75.152;2022-08-27T12:52:48;4.38;;;3.97;;
56631;SDS011;42503;39.928;-75.152;2022-08-27T12:57:34;6.10;;;4.45;;
56631;SDS011;42503;39.928;-75.152;2022-08-27T12:59:48;5.68;;;3.88;;